Time;durP1;ratioP1;P1;durP2;ratioP2;P2;SDS_P1;SDS_P2;PMS_P1;PMS_P2;Temp;Humidity;BMP_temperature;BMP_pressure;BME280_temperature;BME280_humidity;BME280_pressure;Samples;Min_cycle;Max_cycle;Signal;HPM_P1;HPM_P2
2022/07/03 00:00:21;;;;;;;3.33;2.38;;;15.60;99.90;;;;;;5196982;28;20033;-61
2022/07/03 00:02:55;;;;;;;2.22;2.03;;;15.70;99.90;;;;;;5231784;28;20035;-62
2022/07/03 00:05:26;;;;;;;8.63;2.77;;;15.60;99.90;;;;;;5209801;28;20055;-62
2022/07/03 00:07:57;;;;;;;2.95;2.08;;;15.60;99.90;;;;;;5237307;28;20585;-61
2022/07/03 00:10:29;;;;;;;2.03;1.83;;;15.60;99.90;;;;;;5220017;28;20308;-61
2022/07/03 00:13:00;;;;;;;2.42;2.22;;;15.50;99.90;;;;;;5225125;28;20018;-60
2022/07/03 00:15:31;;;;;;;3.78;2.67;;;15.60;99.90;;;;;;5196596;28;20307;-62
2022/07/03 00:18:02;;;;;;;2.33;2.13;;;15.50;99.90;;;;;;5194671;28;20299;-62
2022/07/03 00:20:40;;;;;;;2.83;2.58;;;15.50;99.90;;;;;;5202454;28;20036;-60
2022/07/03 00:23:16;;;;;;;2.92;2.63;;;15.50;99.90;;;;;;5215184;28;20024;-61
2022/07/03 00:25:51;;;;;;;2.90;2.60;;;15.50;99.90;;;;;;5216721;28;20313;-60
2022/07/03 00:28:25;;;;;;;4.72;2.53;;;15.40;99.90;;;;;;5198421;28;20028;-60
2022/07/03 00:30:59;;;;;;;2.33;2.13;;;15.40;99.90;;;;;;5216171;28;20024;-61
2022/07/03 00:33:36;;;;;;;4.05;2.10;;;15.40;99.90;;;;;;5197943;28;20029;-60
2022/07/03 00:36:08;;;;;;;2.42;2.03;;;15.40;99.90;;;;;;5216074;28;20027;-60
2022/07/03 00:38:41;;;;;;;2.70;2.30;;;15.40;99.90;;;;;;5180448;28;20044;-60
2022/07/03 00:41:28;;;;;;;3.15;2.40;;;15.40;99.90;;;;;;5220592;28;20033;-60
2022/07/03 00:44:03;;;;;;;4.07;2.78;;;15.40;99.90;;;;;;5202956;28;20021;-60
2022/07/03 00:46:41;;;;;;;3.10;1.88;;;15.40;99.90;;;;;;5202340;28;20039;-60
2022/07/03 00:49:18;;;;;;;3.67;2.35;;;15.40;99.90;;;;;;5202935;28;20027;-60
2022/07/03 00:51:53;;;;;;;4.53;3.20;;;15.30;99.90;;;;;;5212535;28;20297;-60
2022/07/03 00:54:25;;;;;;;2.65;2.40;;;15.20;99.90;;;;;;5181515;28;20033;-60
2022/07/03 00:57:00;;;;;;;2.63;2.42;;;15.20;99.90;;;;;;5199664;28;20025;-61
2022/07/03 00:59:32;;;;;;;3.05;2.50;;;15.10;99.90;;;;;;5199974;28;20055;-60
2022/07/03 01:02:07;;;;;;;3.97;2.90;;;15.00;99.90;;;;;;5192038;28;20017;-62
2022/07/03 01:05:03;;;;;;;2.97;2.63;;;15.00;99.90;;;;;;5210264;28;20045;-61
2022/07/03 01:08:16;;;;;;;2.83;2.33;;;14.80;99.90;;;;;;5202228;28;20020;-60
2022/07/03 01:11:09;;;;;;;2.78;2.30;;;14.70;99.90;;;;;;5150100;28;20037;-61
2022/07/03 01:13:58;;;;;;;3.28;2.58;;;14.60;99.90;;;;;;5155766;28;20384;-60
2022/07/03 01:16:59;;;;;;;2.80;2.38;;;14.50;99.90;;;;;;5155988;28;20030;-63
2022/07/03 01:19:50;;;;;;;3.55;3.05;;;14.60;99.90;;;;;;5156360;28;20022;-59
2022/07/03 01:22:24;;;;;;;3.72;2.65;;;14.60;99.90;;;;;;5139291;28;20040;-60
2022/07/03 01:25:13;;;;;;;3.67;2.70;;;14.70;99.90;;;;;;5139807;28;20312;-60
2022/07/03 01:28:00;;;;;;;3.05;2.63;;;14.70;99.90;;;;;;5155252;28;20033;-60
2022/07/03 01:30:35;;;;;;;3.63;2.85;;;14.70;99.90;;;;;;5142597;28;20041;-61
2022/07/03 01:33:26;;;;;;;3.60;3.28;;;14.70;99.90;;;;;;5135242;28;20039;-60
2022/07/03 01:36:05;;;;;;;3.75;2.50;;;14.60;99.90;;;;;;5135890;28;20406;-62
2022/07/03 01:38:42;;;;;;;4.07;2.88;;;14.60;99.90;;;;;;5155058;28;20026;-61
2022/07/03 01:41:13;;;;;;;6.20;3.70;;;14.50;99.90;;;;;;5138945;28;20061;-60
2022/07/03 01:43:49;;;;;;;2.95;2.65;;;14.40;99.90;;;;;;5159981;28;20022;-61
2022/07/03 01:46:27;;;;;;;3.42;2.85;;;14.40;99.90;;;;;;5220400;28;20032;-61
2022/07/03 01:49:02;;;;;;;3.30;2.80;;;14.40;99.90;;;;;;5219407;28;20043;-59
2022/07/03 01:51:43;;;;;;;2.58;2.38;;;14.50;99.90;;;;;;5180642;28;20028;-60
2022/07/03 01:54:16;;;;;;;3.58;3.20;;;14.40;99.90;;;;;;5198598;28;20039;-60
2022/07/03 01:56:47;;;;;;;3.35;2.72;;;14.40;99.90;;;;;;5198746;28;20196;-61
2022/07/03 01:59:24;;;;;;;3.92;2.80;;;14.40;99.90;;;;;;5216021;28;20043;-60
2022/07/03 02:02:14;;;;;;;3.22;2.83;;;14.50;99.90;;;;;;5201170;28;20162;-62
2022/07/03 02:04:48;;;;;;;3.10;2.80;;;14.50;99.90;;;;;;5208047;28;20350;-60
2022/07/03 02:07:33;;;;;;;3.38;3.08;;;14.40;99.90;;;;;;5218229;28;20210;-60
2022/07/03 02:10:09;;;;;;;3.90;3.17;;;14.30;99.90;;;;;;5227927;28;20043;-60
2022/07/03 02:12:49;;;;;;;3.03;2.60;;;14.30;99.90;;;;;;5207270;28;20063;-61
2022/07/03 02:15:47;;;;;;;3.08;2.60;;;14.20;99.90;;;;;;5226405;28;20030;-62
2022/07/03 02:18:33;;;;;;;3.65;2.88;;;14.20;99.90;;;;;;5261752;28;20020;-62
2022/07/03 02:21:14;;;;;;;2.70;2.50;;;14.20;99.90;;;;;;5234671;28;20154;-61
2022/07/03 02:24:20;;;;;;;4.22;2.47;;;14.10;99.90;;;;;;5206236;28;20031;-60
2022/07/03 02:27:05;;;;;;;4.03;2.67;;;14.00;99.90;;;;;;5200283;28;20416;-62
2022/07/03 02:29:46;;;;;;;4.13;2.95;;;14.00;99.90;;;;;;5218713;28;20032;-61
2022/07/03 02:32:22;;;;;;;4.28;3.08;;;13.90;99.90;;;;;;5200423;28;20050;-62
2022/07/03 02:35:09;;;;;;;3.47;2.80;;;13.80;99.90;;;;;;5218438;28;20209;-62
2022/07/03 02:38:04;;;;;;;3.10;2.80;;;13.80;99.90;;;;;;5218148;28;20033;-60
2022/07/03 02:41:12;;;;;;;3.45;3.03;;;13.80;99.90;;;;;;5199956;28;20237;-60
2022/07/03 02:43:53;;;;;;;3.60;3.20;;;13.70;99.90;;;;;;5218397;28;20025;-60
2022/07/03 02:47:21;;;;;;;3.97;3.33;;;13.70;99.90;;;;;;5200542;28;20332;-60
2022/07/03 02:50:10;;;;;;;3.40;3.00;;;13.70;99.90;;;;;;5095918;28;20201;-60
2022/07/03 02:52:49;;;;;;;3.70;2.55;;;13.70;99.90;;;;;;5153579;28;20056;-61
2022/07/03 02:55:29;;;;;;;3.63;3.05;;;13.60;99.90;;;;;;5151702;28;20420;-61
2022/07/03 02:58:19;;;;;;;3.83;3.15;;;13.60;99.90;;;;;;5153160;28;20040;-60
2022/07/03 03:01:08;;;;;;;3.33;3.00;;;13.70;99.90;;;;;;5137354;28;20089;-60
2022/07/03 03:04:00;;;;;;;5.28;3.30;;;13.80;99.90;;;;;;5132967;28;20042;-60
2022/07/03 03:06:35;;;;;;;6.15;3.00;;;13.90;99.90;;;;;;5157619;28;20046;-60
2022/07/03 03:09:13;;;;;;;3.50;2.83;;;13.90;99.90;;;;;;5169178;28;20034;-60
2022/07/03 03:11:45;;;;;;;3.90;3.13;;;14.00;99.90;;;;;;5154089;28;20040;-60
2022/07/03 03:14:23;;;;;;;4.57;2.85;;;14.00;99.90;;;;;;5137355;28;20026;-61
2022/07/03 03:16:54;;;;;;;3.72;2.85;;;14.10;99.90;;;;;;5153081;28;20025;-61
2022/07/03 03:19:30;;;;;;;3.33;3.03;;;14.20;99.90;;;;;;5136664;28;20327;-61
2022/07/03 03:22:14;;;;;;;3.58;3.25;;;14.20;99.90;;;;;;5152934;28;20038;-62
2022/07/03 03:24:54;;;;;;;4.85;3.83;;;14.30;99.90;;;;;;5156404;28;20026;-60
2022/07/03 03:27:28;;;;;;;4.53;3.03;;;14.40;99.90;;;;;;5236197;28;20244;-60
2022/07/03 03:29:59;;;;;;;4.20;3.20;;;14.50;99.90;;;;;;5237565;28;20446;-61
2022/07/03 03:32:40;;;;;;;3.58;2.63;;;14.70;99.90;;;;;;5201717;28;20239;-61
2022/07/03 03:35:12;;;;;;;3.97;3.20;;;14.80;99.90;;;;;;5245792;28;20016;-61
2022/07/03 03:37:50;;;;;;;3.33;3.03;;;14.90;99.90;;;;;;5258385;28;20027;-61
2022/07/03 03:40:24;;;;;;;3.70;3.20;;;15.10;99.90;;;;;;5258478;28;20310;-61
2022/07/03 03:42:55;;;;;;;3.53;3.22;;;15.20;99.90;;;;;;5239889;28;20024;-62
2022/07/03 03:45:29;;;;;;;3.63;2.78;;;15.40;99.90;;;;;;5240107;28;20024;-61
2022/07/03 03:48:06;;;;;;;3.03;2.78;;;15.60;99.90;;;;;;5242373;28;20050;-61
2022/07/03 03:50:37;;;;;;;3.92;2.75;;;15.70;99.90;;;;;;5202571;28;20249;-62
2022/07/03 03:53:14;;;;;;;3.88;2.70;;;16.00;99.90;;;;;;5227713;28;20020;-61
2022/07/03 03:56:03;;;;;;;3.35;2.97;;;16.20;99.90;;;;;;5216566;28;20031;-61
2022/07/03 03:58:40;;;;;;;3.70;3.10;;;16.40;99.90;;;;;;5217085;28;20349;-62
2022/07/03 04:01:13;;;;;;;3.65;3.35;;;16.50;99.90;;;;;;5235605;28;20046;-62
2022/07/03 04:03:46;;;;;;;4.68;2.88;;;16.80;99.90;;;;;;5218313;28;20323;-62
2022/07/03 04:06:19;;;;;;;3.42;3.00;;;16.90;99.90;;;;;;5225554;28;20044;-62
2022/07/03 04:08:50;;;;;;;5.57;2.53;;;16.90;99.90;;;;;;5237745;28;20024;-62
2022/07/03 04:11:24;;;;;;;3.22;2.92;;;17.00;99.90;;;;;;5218639;28;20055;-62
2022/07/03 04:14:00;;;;;;;3.27;2.97;;;17.10;99.90;;;;;;5218497;28;20043;-61
2022/07/03 04:16:36;;;;;;;5.90;2.58;;;17.20;99.90;;;;;;5235962;28;20264;-63
2022/07/03 04:19:09;;;;;;;3.10;2.80;;;17.30;99.90;;;;;;5237071;28;20027;-61
2022/07/03 04:21:41;;;;;;;3.60;3.05;;;17.30;99.90;;;;;;5244876;28;20032;-61
2022/07/03 04:24:12;;;;;;;2.67;2.10;;;17.20;99.90;;;;;;5217717;28;20029;-61
2022/07/03 04:26:45;;;;;;;3.22;2.50;;;17.40;99.90;;;;;;5197918;28;20031;-61
2022/07/03 04:29:19;;;;;;;4.70;2.80;;;17.50;99.90;;;;;;5216654;28;20175;-61
2022/07/03 04:31:52;;;;;;;2.92;2.53;;;17.60;99.90;;;;;;5216528;28;20028;-63
2022/07/03 04:34:25;;;;;;;3.15;2.10;;;17.70;99.90;;;;;;5215707;28;20043;-61
2022/07/03 04:36:56;;;;;;;2.58;2.35;;;17.80;99.90;;;;;;5199255;28;20344;-62
2022/07/03 04:39:30;;;;;;;2.80;2.47;;;17.90;99.90;;;;;;5215706;28;20129;-61
2022/07/03 04:42:01;;;;;;;3.47;2.70;;;18.00;99.90;;;;;;5215835;28;20055;-61
2022/07/03 04:44:34;;;;;;;2.90;2.47;;;18.30;99.90;;;;;;5198306;28;20297;-61
2022/07/03 04:47:08;;;;;;;4.25;3.42;;;18.50;99.90;;;;;;5198137;28;20025;-62
2022/07/03 04:49:44;;;;;;;2.60;2.30;;;18.50;99.90;;;;;;5216519;28;20337;-61
2022/07/03 04:52:17;;;;;;;2.92;2.65;;;18.60;99.90;;;;;;5231100;28;20165;-61
2022/07/03 04:54:50;;;;;;;3.75;2.72;;;18.70;99.90;;;;;;5182285;28;20229;-61
2022/07/03 04:57:25;;;;;;;2.83;2.53;;;18.80;99.90;;;;;;5216613;28;20028;-61
2022/07/03 04:59:56;;;;;;;;;;;19.00;99.90;;;;;;5199217;28;20028;-61
2022/07/03 05:02:27;;;;;;;3.40;2.67;;;19.30;99.90;;;;;;5211778;28;19908;-62
2022/07/03 05:04:59;;;;;;;4.45;2.80;;;19.30;99.90;;;;;;5224880;28;20376;-62
2022/07/03 05:07:32;;;;;;;3.47;3.00;;;19.30;99.90;;;;;;5219108;28;20051;-62
2022/07/03 05:10:07;;;;;;;3.92;3.28;;;19.30;99.90;;;;;;5236778;28;20029;-63
2022/07/03 05:12:41;;;;;;;3.10;2.63;;;19.50;99.90;;;;;;5218709;28;20039;-62
2022/07/03 05:15:12;;;;;;;3.03;2.72;;;19.70;99.90;;;;;;5219317;28;20513;-63
2022/07/03 05:17:46;;;;;;;3.35;2.92;;;20.20;99.90;;;;;;5237143;28;20032;-63
2022/07/03 05:20:29;;;;;;;2.70;2.50;;;20.20;99.90;;;;;;5236792;28;20016;-62
2022/07/03 05:23:02;;;;;;;3.38;2.80;;;19.90;99.90;;;;;;5245907;28;20030;-62
2022/07/03 05:25:36;;;;;;;2.67;2.47;;;20.00;99.90;;;;;;5219644;28;20020;-63
2022/07/03 05:28:09;;;;;;;2.97;2.63;;;20.10;99.90;;;;;;5224043;28;20028;-61
2022/07/03 05:30:42;;;;;;;3.22;2.50;;;20.10;99.90;;;;;;5261183;28;20028;-61
2022/07/03 05:33:13;;;;;;;2.83;2.33;;;20.40;99.90;;;;;;5243455;28;20030;-61
2022/07/03 05:35:47;;;;;;;3.92;2.80;;;20.50;99.90;;;;;;5243483;28;20113;-61
2022/07/03 05:41:15;;;;;;;;;;;21.20;99.90;;;;;;5261592;28;20039;-62
2022/07/03 05:43:49;;;;;;;2.63;2.42;;;21.60;99.90;;;;;;5261554;28;19906;-63
2022/07/03 05:46:20;;;;;;;3.35;2.67;;;22.20;99.90;;;;;;5261233;28;20012;-62
2022/07/03 05:48:51;;;;;;;3.70;2.97;;;22.30;99.90;;;;;;5241902;28;20027;-62
2022/07/03 05:51:23;;;;;;;2.20;2.00;;;22.00;99.90;;;;;;5240067;28;20191;-62
2022/07/03 05:53:57;;;;;;;2.60;2.40;;;21.70;99.90;;;;;;5205751;28;20051;-62
2022/07/03 05:56:31;;;;;;;3.40;2.80;;;22.00;99.90;;;;;;5204918;28;20249;-63
2022/07/03 05:59:05;;;;;;;2.73;2.20;;;22.20;99.90;;;;;;5240011;28;20027;-62
2022/07/03 06:01:39;;;;;;;2.33;2.13;;;22.10;99.90;;;;;;5221671;28;20609;-62
2022/07/03 06:04:13;;;;;;;2.88;2.30;;;22.20;99.90;;;;;;5229897;28;20016;-61
2022/07/03 06:06:47;;;;;;;4.22;2.78;;;22.20;99.90;;;;;;5238087;28;20028;-62
2022/07/03 06:09:21;;;;;;;2.05;1.85;;;22.30;99.90;;;;;;5226267;28;20028;-62
2022/07/03 06:11:55;;;;;;;2.90;2.25;;;22.30;99.90;;;;;;5241950;28;20058;-63
2022/07/03 06:14:29;;;;;;;2.30;2.10;;;22.90;99.90;;;;;;5260592;28;20030;-62
2022/07/03 06:17:03;;;;;;;2.78;2.50;;;23.30;99.90;;;;;;5259474;28;20020;-62
2022/07/03 06:19:34;;;;;;;6.10;2.55;;;24.10;99.90;;;;;;5242605;28;20209;-62
2022/07/03 06:22:05;;;;;;;2.90;2.17;;;23.80;99.90;;;;;;5254854;28;20030;-61
2022/07/03 06:24:38;;;;;;;2.28;2.08;;;23.40;99.90;;;;;;5221774;28;20246;-62
2022/07/03 06:27:12;;;;;;;2.55;2.17;;;23.20;99.90;;;;;;5221690;28;20025;-62
2022/07/03 06:29:46;;;;;;;2.38;2.17;;;23.00;99.90;;;;;;5220896;28;20024;-61
2022/07/03 06:32:17;;;;;;;2.95;2.65;;;22.80;99.90;;;;;;5220228;28;20036;-61
2022/07/03 06:34:51;;;;;;;2.63;1.92;;;22.80;99.90;;;;;;5239933;28;20031;-62
2022/07/03 06:37:22;;;;;;;2.45;2.25;;;23.70;99.90;;;;;;5238905;28;20024;-62
2022/07/03 06:39:56;;;;;;;2.40;2.20;;;24.80;99.90;;;;;;5187318;28;20314;-63
2022/07/03 06:42:29;;;;;;;3.55;2.65;;;25.30;99.90;;;;;;5220770;28;20036;-62
2022/07/03 06:45:04;;;;;;;2.60;2.20;;;24.90;99.90;;;;;;5239105;28;20209;-62
2022/07/03 06:47:41;;;;;;;2.42;2.22;;;24.10;99.90;;;;;;5221429;28;20324;-62
2022/07/03 06:50:12;;;;;;;2.10;1.80;;;24.10;99.90;;;;;;5220614;28;20067;-61
2022/07/03 06:52:46;;;;;;;2.20;1.80;;;24.20;99.90;;;;;;5214056;28;20027;-62
2022/07/03 06:55:20;;;;;;;4.68;2.20;;;24.60;99.90;;;;;;5199749;28;20017;-62
2022/07/03 06:57:57;;;;;;;2.17;1.92;;;25.20;99.90;;;;;;5218883;28;20035;-61
2022/07/03 07:00:32;;;;;;;4.72;2.10;;;26.00;99.90;;;;;;5217466;28;20059;-61
2022/07/03 07:03:03;;;;;;;2.05;1.85;;;26.20;99.90;;;;;;5202322;28;20031;-62
2022/07/03 07:05:34;;;;;;;1.75;1.65;;;26.30;99.90;;;;;;5227377;28;20272;-62
2022/07/03 07:08:05;;;;;;;2.25;1.70;;;26.40;99.90;;;;;;5199648;28;20334;-63
2022/07/03 07:10:39;;;;;;;2.45;2.20;;;26.60;99.90;;;;;;5198625;28;20194;-62
2022/07/03 07:13:14;;;;;;;2.70;1.75;;;26.70;99.90;;;;;;5255821;28;20153;-63
2022/07/03 07:15:45;;;;;;;2.25;1.92;;;26.00;99.90;;;;;;5245833;28;20425;-62
2022/07/03 07:18:16;;;;;;;1.80;1.70;;;26.00;99.90;;;;;;5238627;28;20024;-61
2022/07/03 07:20:53;;;;;;;1.73;1.63;;;25.50;99.90;;;;;;5220306;28;20229;-62
2022/07/03 07:23:24;;;;;;;2.45;1.60;;;26.00;99.90;;;;;;5226279;28;20193;-63
2022/07/03 07:25:55;;;;;;;1.45;1.35;;;27.60;99.90;;;;;;5183135;28;20028;-61
2022/07/03 07:28:26;;;;;;;2.13;1.48;;;27.00;99.90;;;;;;5223965;28;20191;-62
2022/07/03 07:31:00;;;;;;;2.13;1.50;;;26.50;99.90;;;;;;5238332;28;20024;-62
2022/07/03 07:33:34;;;;;;;1.95;1.73;;;26.80;99.90;;;;;;5234057;28;20306;-63
2022/07/03 07:36:08;;;;;;;1.83;1.55;;;27.30;99.90;;;;;;5227503;28;20046;-63
2022/07/03 07:38:40;;;;;;;2.65;1.60;;;27.20;99.90;;;;;;5216846;28;20341;-61
2022/07/03 07:41:14;;;;;;;2.75;1.80;;;27.30;99.90;;;;;;5220758;28;20043;-61
2022/07/03 07:43:53;;;;;;;2.20;1.75;;;27.40;99.90;;;;;;5206783;28;20154;-60
2022/07/03 07:46:29;;;;;;;1.95;1.55;;;26.80;99.90;;;;;;5228350;28;20217;-60
2022/07/03 07:49:00;;;;;;;2.17;1.98;;;27.40;99.90;;;;;;5236425;28;20025;-63
2022/07/03 07:51:37;;;;;;;2.30;2.00;;;27.60;99.90;;;;;;5236743;28;20027;-61
2022/07/03 07:54:10;;;;;;;2.88;1.95;;;28.10;99.90;;;;;;5222317;28;20031;-61
2022/07/03 07:56:42;;;;;;;2.03;1.67;;;28.90;99.90;;;;;;5237166;28;20031;-61
2022/07/03 07:59:16;;;;;;;2.17;1.98;;;29.10;99.90;;;;;;5221904;28;20032;-61
2022/07/03 08:07:27;;;;;;;5.10;1.65;;;28.80;99.90;;;;;;5238082;28;20024;-61
2022/07/03 08:09:58;;;;;;;4.35;1.80;;;29.00;99.90;;;;;;5229721;28;20047;-60
2022/07/03 08:12:29;;;;;;;3.08;1.42;;;28.80;99.90;;;;;;5217422;28;20402;-60
2022/07/03 08:15:42;;;;;;;1.60;1.50;;;27.00;99.90;;;;;;5218375;28;20039;-60
2022/07/03 08:18:13;;;;;;;1.65;1.50;;;27.20;99.90;;;;;;5218244;28;20018;-60
2022/07/03 08:20:47;;;;;;;2.03;1.70;;;27.00;99.90;;;;;;5217234;28;20184;-60
2022/07/03 08:23:20;;;;;;;1.77;1.67;;;26.10;99.90;;;;;;5200589;28;20048;-60
2022/07/03 08:25:51;;;;;;;2.83;1.92;;;26.20;99.90;;;;;;5189666;28;20039;-61
2022/07/03 08:28:23;;;;;;;2.00;1.80;;;26.10;99.90;;;;;;5194829;28;20039;-61
2022/07/03 08:30:58;;;;;;;2.10;1.55;;;26.60;99.90;;;;;;5216312;28;20033;-60
2022/07/03 08:33:30;;;;;;;4.68;1.73;;;26.20;99.90;;;;;;5200610;28;20025;-60
2022/07/03 08:36:05;;;;;;;1.92;1.70;;;26.10;99.90;;;;;;5213573;28;20026;-62
2022/07/03 08:38:36;;;;;;;1.90;1.60;;;26.40;99.90;;;;;;5217186;28;20029;-61
2022/07/03 08:41:09;;;;;;;2.05;1.85;;;27.00;99.90;;;;;;5198065;28;20195;-61
2022/07/03 08:43:42;;;;;;;2.10;1.88;;;26.60;99.90;;;;;;5182250;28;20229;-60
2022/07/03 08:46:15;;;;;;;2.13;1.92;;;26.10;99.90;;;;;;5199661;28;20198;-61
2022/07/03 08:48:52;;;;;;;2.20;2.00;;;26.10;99.90;;;;;;5217814;28;20025;-60
2022/07/03 08:51:27;;;;;;;1.70;1.60;;;26.30;99.90;;;;;;5197620;28;20336;-60
2022/07/03 08:54:04;;;;;;;2.10;1.80;;;25.40;99.90;;;;;;5201391;28;20025;-60
2022/07/03 08:56:36;;;;;;;1.58;1.42;;;25.70;99.90;;;;;;5182661;28;20222;-60
2022/07/03 08:59:10;;;;;;;1.73;1.52;;;26.30;99.90;;;;;;5200577;28;20037;-61
2022/07/03 09:01:43;;;;;;;2.03;1.88;;;26.90;99.90;;;;;;5220469;28;20025;-60
2022/07/03 09:04:21;;;;;;;2.08;1.88;;;27.30;99.90;;;;;;5210947;28;20302;-62
2022/07/03 09:06:54;;;;;;;2.50;1.85;;;27.80;99.90;;;;;;5203110;28;20043;-61
2022/07/03 09:09:25;;;;;;;3.25;2.10;;;28.20;99.90;;;;;;5221567;28;20036;-61
2022/07/03 09:11:58;;;;;;;1.77;1.67;;;27.80;99.90;;;;;;5220235;28;20040;-61
2022/07/03 09:14:30;;;;;;;1.70;1.60;;;26.90;99.90;;;;;;5204109;28;20230;-59
2022/07/03 09:17:04;;;;;;;3.00;2.15;;;26.50;99.90;;;;;;5185486;28;20277;-61
2022/07/03 09:19:47;;;;;;;2.00;1.85;;;26.80;99.90;;;;;;5221191;28;20027;-60
2022/07/03 09:22:24;;;;;;;1.77;1.58;;;26.50;99.90;;;;;;5220699;28;20037;-60
2022/07/03 09:25:10;;;;;;;2.10;1.80;;;26.70;99.90;;;;;;5220377;28;20294;-61
2022/07/03 09:27:53;;;;;;;3.63;2.10;;;28.40;99.90;;;;;;5220161;28;20222;-61
2022/07/03 09:30:28;;;;;;;1.80;1.70;;;27.70;99.90;;;;;;5221347;28;20025;-61
2022/07/03 09:33:06;;;;;;;2.03;1.83;;;27.10;99.90;;;;;;5243129;28;20031;-60
2022/07/03 09:35:42;;;;;;;2.15;1.95;;;27.30;99.90;;;;;;5215158;28;20035;-61
2022/07/03 09:38:16;;;;;;;2.20;2.00;;;27.20;99.90;;;;;;5245973;28;20020;-60
2022/07/03 09:40:58;;;;;;;1.88;1.77;;;26.90;99.90;;;;;;5242929;28;20037;-60
2022/07/03 09:43:34;;;;;;;2.05;1.60;;;26.90;99.90;;;;;;5260434;28;20043;-60
2022/07/03 09:46:07;;;;;;;1.85;1.70;;;26.90;99.90;;;;;;5242460;28;20624;-61
2022/07/03 09:48:41;;;;;;;2.00;1.90;;;27.20;99.90;;;;;;5245505;28;20335;-62
2022/07/03 09:51:15;;;;;;;2.90;1.90;;;27.20;99.90;;;;;;5243045;28;20031;-60
2022/07/03 09:53:56;;;;;;;1.70;1.60;;;27.00;99.90;;;;;;5243632;28;20043;-60
2022/07/03 09:56:28;;;;;;;2.50;2.03;;;27.40;99.90;;;;;;5226994;28;20035;-60
2022/07/03 09:59:11;;;;;;;1.70;1.60;;;27.40;99.90;;;;;;5262652;28;20024;-60
2022/07/03 10:01:47;;;;;;;2.42;2.22;;;28.40;99.90;;;;;;5260552;28;20034;-62
2022/07/03 10:04:20;;;;;;;2.40;1.70;;;28.00;99.90;;;;;;5232106;28;20305;-61
2022/07/03 10:07:03;;;;;;;1.92;1.73;;;28.00;99.90;;;;;;5211395;28;20036;-61
2022/07/03 10:09:34;;;;;;;5.35;2.60;;;28.50;99.90;;;;;;5247647;28;20039;-61
2022/07/03 10:12:11;;;;;;;1.77;1.67;;;28.20;99.90;;;;;;5263379;28;20042;-61
2022/07/03 10:14:42;;;;;;;1.92;1.73;;;27.90;99.90;;;;;;5283503;28;20028;-63
2022/07/03 10:17:14;;;;;;;1.73;1.63;;;29.00;99.90;;;;;;5264019;28;20035;-61
2022/07/03 10:19:45;;;;;;;1.70;1.60;;;29.90;99.90;;;;;;5283042;28;20032;-66
2022/07/03 10:22:21;;;;;;;1.80;1.70;;;29.50;99.90;;;;;;5263734;28;20036;-61
2022/07/03 10:24:54;;;;;;;1.85;1.75;;;28.80;99.90;;;;;;5253844;28;20127;-63
2022/07/03 10:27:25;;;;;;;2.22;1.85;;;28.40;99.90;;;;;;5222493;28;20433;-61
2022/07/03 10:29:58;;;;;;;1.45;1.35;;;28.80;99.90;;;;;;5240474;28;20016;-61
2022/07/03 10:32:35;;;;;;;1.65;1.55;;;29.00;99.90;;;;;;5240117;28;20375;-61
2022/07/03 10:35:11;;;;;;;1.70;1.60;;;29.10;99.90;;;;;;5230491;28;20034;-64
2022/07/03 10:38:01;;;;;;;3.85;1.58;;;29.30;99.90;;;;;;5249810;28;20034;-62
2022/07/03 10:46:44;;;;;;;1.52;1.30;;;29.70;99.90;;;;;;5221539;28;20032;-62
2022/07/03 10:49:20;;;;;;;1.92;1.73;;;30.10;99.90;;;;;;5240758;28;20292;-62
2022/07/03 10:51:54;;;;;;;2.13;1.50;;;30.80;99.90;;;;;;5201457;28;20025;-62
2022/07/03 10:54:36;;;;;;;1.55;1.45;;;30.90;99.90;;;;;;5202046;28;20024;-63
2022/07/03 10:57:13;;;;;;;1.73;1.63;;;31.60;99.90;;;;;;5219928;28;20193;-62
2022/07/03 10:59:47;;;;;;;1.48;1.38;;;31.50;99.90;;;;;;5219474;28;20028;-62
2022/07/03 11:02:31;;;;;;;;;;;31.90;99.90;;;;;;5222802;28;20025;-61
2022/07/03 11:05:05;;;;;;;1.45;1.35;;;32.70;99.90;;;;;;5211158;28;19947;-62
2022/07/03 11:07:42;;;;;;;1.30;1.20;;;31.50;99.90;;;;;;5238507;28;20322;-64
2022/07/03 11:10:19;;;;;;;2.10;1.58;;;32.30;99.90;;;;;;5201994;28;20046;-62
2022/07/03 11:12:53;;;;;;;1.70;1.60;;;32.20;99.90;;;;;;5220892;28;20310;-61
2022/07/03 11:15:46;;;;;;;1.48;1.38;;;31.50;99.90;;;;;;5240302;28;20016;-62
2022/07/03 11:18:27;;;;;;;2.25;1.52;;;32.60;99.90;;;;;;5239783;28;20024;-63
2022/07/03 11:21:13;;;;;;;1.45;1.35;;;33.10;99.90;;;;;;5220994;28;20357;-62
2022/07/03 11:24:07;;;;;;;1.60;1.50;;;33.10;99.90;;;;;;5251557;28;20306;-62
2022/07/03 11:26:38;;;;;;;1.45;1.35;;;32.90;99.90;;;;;;5242794;28;20174;-60
2022/07/03 11:29:26;;;;;;;2.97;1.40;;;34.50;99.90;;;;;;5242868;28;20028;-62
2022/07/03 11:32:36;;;;;;;1.38;1.27;;;37.40;99.90;;;;;;5225397;28;20032;-63
2022/07/03 11:35:27;;;;;;;1.45;1.35;;;35.00;99.90;;;;;;5218796;28;20387;-63
2022/07/03 11:38:02;;;;;;;1.38;1.27;;;32.60;99.90;;;;;;5238291;28;20028;-63
2022/07/03 11:40:36;;;;;;;0.82;0.82;;;33.70;99.90;;;;;;5220597;28;20195;-63
2022/07/03 11:43:07;;;;;;;1.40;1.13;;;33.80;99.90;;;;;;5220413;28;20021;-62
2022/07/03 11:45:40;;;;;;;1.65;1.55;;;34.40;99.90;;;;;;5221301;28;20031;-62
2022/07/03 11:48:22;;;;;;;1.63;1.13;;;33.90;99.90;;;;;;5239289;28;20024;-62
2022/07/03 11:51:03;;;;;;;1.40;1.30;;;35.70;99.90;;;;;;5252886;28;20019;-61
2022/07/03 11:53:38;;;;;;;0.93;0.93;;;36.40;99.90;;;;;;5229562;28;20028;-62
2022/07/03 11:56:16;;;;;;;2.63;1.20;;;34.80;99.90;;;;;;5240920;28;20020;-61
2022/07/03 11:58:52;;;;;;;0.90;0.90;;;34.80;99.90;;;;;;5222926;28;20020;-62
2022/07/03 12:01:27;;;;;;;0.80;0.80;;;35.50;99.90;;;;;;5229308;28;20020;-62
2022/07/03 12:04:12;;;;;;;1.05;1.02;;;35.60;99.90;;;;;;5229970;28;20051;-61
2022/07/03 12:06:49;;;;;;;1.55;1.05;;;34.60;99.90;;;;;;5197007;28;20052;-63
2022/07/03 12:09:33;;;;;;;1.35;1.25;;;34.40;99.90;;;;;;5232255;28;20201;-61
2022/07/03 12:12:05;;;;;;;1.25;1.15;;;33.40;99.90;;;;;;5260966;28;20278;-61
2022/07/03 12:14:51;;;;;;;1.40;1.23;;;33.70;99.90;;;;;;5247103;28;20020;-61
2022/07/03 12:17:25;;;;;;;1.17;1.08;;;34.70;99.90;;;;;;5225244;28;20032;-61
2022/07/03 12:20:05;;;;;;;1.13;1.13;;;33.30;99.90;;;;;;5240547;28;20027;-61
2022/07/03 12:22:41;;;;;;;1.00;1.00;;;33.30;99.90;;;;;;5238538;28;20031;-61
2022/07/03 12:25:17;;;;;;;1.15;0.90;;;33.10;99.90;;;;;;5237560;28;20339;-61
2022/07/03 12:27:48;;;;;;;1.58;0.95;;;33.60;99.90;;;;;;5222652;28;20028;-64
2022/07/03 12:30:27;;;;;;;0.80;0.80;;;33.20;99.90;;;;;;5252108;28;20359;-62
2022/07/03 12:32:58;;;;;;;0.82;0.82;;;33.40;99.90;;;;;;5227583;28;20030;-61
2022/07/03 12:35:29;;;;;;;1.17;1.08;;;33.80;99.90;;;;;;5238824;28;20163;-62
2022/07/03 12:38:01;;;;;;;0.88;0.88;;;33.60;99.90;;;;;;5238574;28;20038;-63
2022/07/03 12:40:32;;;;;;;0.80;0.80;;;33.80;99.90;;;;;;5237877;28;20030;-62
2022/07/03 12:43:03;;;;;;;0.90;0.80;;;33.60;99.90;;;;;;5236926;28;20020;-62
2022/07/03 12:45:35;;;;;;;1.02;0.93;;;35.00;99.90;;;;;;5219642;28;20318;-62
2022/07/03 12:48:06;;;;;;;0.80;0.80;;;35.90;99.90;;;;;;5239809;28;20032;-60
2022/07/03 12:50:51;;;;;;;0.70;0.70;;;36.30;99.90;;;;;;5239945;28;20008;-63
2022/07/03 12:53:29;;;;;;;0.85;0.85;;;35.00;99.90;;;;;;5229172;28;20029;-62
2022/07/03 12:56:02;;;;;;;0.98;0.88;;;35.00;99.90;;;;;;5220791;28;20028;-60
2022/07/03 13:01:36;;;;;;;1.05;0.90;;;34.20;99.90;;;;;;5226403;28;20027;-61
2022/07/03 13:04:13;;;;;;;0.77;0.77;;;33.80;99.90;;;;;;5242348;28;20059;-61
2022/07/03 13:07:00;;;;;;;0.70;0.70;;;33.70;99.90;;;;;;5196423;28;20037;-61
2022/07/03 13:09:32;;;;;;;0.80;0.80;;;33.40;99.90;;;;;;5240498;28;20248;-63
2022/07/03 13:12:04;;;;;;;0.93;0.93;;;34.10;99.90;;;;;;5239597;28;20028;-62
2022/07/03 13:14:37;;;;;;;0.75;0.75;;;35.10;99.90;;;;;;5255212;28;20021;-62
2022/07/03 13:17:09;;;;;;;1.15;1.05;;;36.50;99.90;;;;;;5241154;28;20033;-61
2022/07/03 13:19:42;;;;;;;0.90;0.90;;;36.20;99.90;;;;;;5250476;28;20496;-61
2022/07/03 13:22:18;;;;;;;0.95;0.85;;;36.70;99.90;;;;;;5218801;28;20314;-61
2022/07/03 13:24:52;;;;;;;1.00;1.00;;;35.90;99.90;;;;;;5205808;28;20021;-63
2022/07/03 13:27:28;;;;;;;1.00;0.95;;;36.40;99.90;;;;;;5240500;28;20031;-62
2022/07/03 13:30:01;;;;;;;0.88;0.88;;;36.60;99.90;;;;;;5258654;28;20031;-61
2022/07/03 13:32:35;;;;;;;1.00;0.90;;;37.60;99.90;;;;;;5259204;28;20031;-63
2022/07/03 13:35:09;;;;;;;0.90;0.90;;;36.50;99.90;;;;;;5222405;28;20028;-63
2022/07/03 13:37:40;;;;;;;;;;;36.00;99.90;;;;;;5241101;28;20021;-61
2022/07/03 13:40:11;;;;;;;1.00;1.00;;;35.90;99.90;;;;;;5240179;28;19900;-61
2022/07/03 13:42:42;;;;;;;1.00;0.90;;;34.50;99.90;;;;;;5204142;28;20028;-62
2022/07/03 13:45:15;;;;;;;1.23;1.15;;;34.60;99.90;;;;;;5240810;28;20023;-64
2022/07/03 13:47:51;;;;;;;0.70;0.70;;;35.90;99.90;;;;;;5251850;28;20020;-63
2022/07/03 13:50:23;;;;;;;0.82;0.82;;;36.00;99.90;;;;;;5225728;28;20050;-61
2022/07/03 13:52:54;;;;;;;1.27;0.93;;;35.20;99.90;;;;;;5217005;28;20029;-62